createdAt,value
2023-04-26T00:05:42.950Z,5.70
2023-04-26T00:15:46.315Z,5.70
2023-04-26T00:25:51.051Z,5.80
2023-04-26T00:35:54.494Z,5.80
2023-04-26T00:45:59.847Z,5.80
2023-04-26T00:56:03.722Z,5.70
2023-04-26T01:06:08.826Z,5.50
2023-04-26T01:16:15.249Z,5.50
2023-04-26T01:26:20.308Z,5.40
2023-04-26T01:36:23.688Z,5.00
2023-04-26T01:46:30.042Z,4.60
2023-04-26T01:56:33.435Z,4.20
2023-04-26T02:06:39.300Z,3.80
2023-04-26T02:16:43.528Z,3.70
2023-04-26T02:26:48.315Z,3.60
2023-04-26T02:36:52.172Z,3.70
2023-04-26T02:46:56.990Z,3.80
2023-04-26T02:57:01.056Z,3.30
2023-04-26T03:07:06.254Z,2.90
2023-04-26T03:17:10.610Z,2.70
2023-04-26T03:27:15.563Z,2.30
2023-04-26T03:37:18.992Z,2.20
2023-04-26T03:47:31.154Z,2.10
2023-04-26T03:57:34.733Z,2.10
2023-04-26T04:07:39.703Z,2.10
2023-04-26T04:17:43.356Z,2.10
2023-04-26T04:27:50.278Z,1.90
2023-04-26T04:37:54.145Z,2.00
2023-04-26T04:47:59.152Z,2.20
2023-04-26T04:58:04.193Z,2.40
2023-04-26T05:08:10.430Z,2.80
2023-04-26T05:18:14.085Z,3.20
2023-04-26T05:28:19.587Z,3.60
2023-04-26T05:38:41.432Z,4.00
2023-04-26T05:48:46.575Z,4.60
2023-04-26T05:58:50.799Z,5.40
2023-04-26T06:08:55.892Z,6.80
2023-04-26T06:18:59.374Z,7.70
2023-04-26T06:29:07.321Z,8.10
2023-04-26T06:39:11.004Z,9.30
2023-04-26T06:49:17.280Z,10.00
2023-04-26T06:59:20.666Z,11.30
2023-04-26T07:09:25.899Z,13.30
2023-04-26T07:19:29.428Z,15.30
2023-04-26T07:29:34.137Z,16.50
2023-04-26T07:39:37.523Z,16.60
2023-04-26T07:49:42.636Z,15.50
2023-04-26T07:59:46.082Z,20.40
2023-04-26T08:09:50.787Z,22.10
2023-04-26T08:19:54.443Z,15.90
2023-04-26T08:30:00.396Z,18.70
2023-04-26T08:40:04.625Z,21.80
2023-04-26T08:50:12.452Z,15.50
2023-04-26T09:00:18.159Z,19.60
2023-04-26T09:10:23.596Z,19.10
2023-04-26T09:20:29.005Z,13.80
2023-04-26T09:30:40.602Z,17.50
2023-04-26T09:40:46.184Z,15.80
2023-04-26T09:50:53.512Z,15.30
2023-04-26T10:00:58.321Z,15.40
2023-04-26T10:11:05.073Z,12.60
2023-04-26T10:21:20.038Z,16.00
2023-04-26T10:31:24.884Z,12.10
2023-04-26T10:41:34.427Z,10.80
2023-04-26T10:51:39.240Z,10.80
2023-04-26T11:01:43.176Z,10.30
2023-04-26T11:11:54.465Z,10.90
2023-04-26T11:22:00.245Z,12.90
2023-04-26T11:32:05.958Z,17.10
2023-04-26T11:42:11.031Z,13.90
2023-04-26T11:52:16.282Z,10.70
2023-04-26T12:02:20.727Z,10.00
2023-04-26T12:12:25.537Z,13.10
2023-04-26T12:22:28.960Z,21.40
2023-04-26T12:32:33.735Z,27.80
2023-04-26T12:42:37.290Z,24.30
2023-04-26T12:52:43.453Z,25.60
2023-04-26T13:02:47.540Z,25.10
2023-04-26T13:12:53.906Z,23.30
2023-04-26T13:22:57.256Z,19.50
2023-04-26T13:33:02.264Z,17.80
2023-04-26T13:43:05.751Z,14.70
2023-04-26T13:53:10.548Z,13.30
2023-04-26T14:03:14.060Z,14.10
2023-04-26T14:13:18.928Z,14.00
2023-04-26T14:23:22.427Z,12.70
2023-04-26T14:33:27.203Z,11.70
2023-04-26T14:43:30.565Z,11.30
2023-04-26T14:53:35.395Z,10.60
2023-04-26T15:03:39.432Z,10.40
2023-04-26T15:13:45.351Z,10.30
2023-04-26T15:23:49.031Z,10.20
2023-04-26T15:33:56.481Z,10.50
2023-04-26T15:44:00.003Z,10.60
2023-04-26T15:54:04.937Z,9.30
2023-04-26T16:04:08.953Z,8.60
2023-04-26T16:14:13.780Z,8.40
2023-04-26T16:24:17.255Z,8.50
2023-04-26T16:34:22.052Z,9.10
2023-04-26T16:44:25.746Z,8.40
2023-04-26T16:54:30.458Z,8.10
2023-04-26T17:04:35.033Z,8.10
2023-04-26T17:14:41.064Z,7.60
2023-04-26T17:24:44.983Z,6.80
2023-04-26T17:34:49.778Z,6.20
2023-04-26T17:44:53.195Z,5.80
2023-04-26T17:54:58.068Z,5.80
2023-04-26T18:05:01.741Z,5.50
2023-04-26T18:15:08.668Z,5.10
2023-04-26T18:25:12.123Z,4.60
2023-04-26T18:35:17.143Z,4.10
2023-04-26T18:45:20.616Z,3.70
2023-04-26T18:55:26.158Z,3.50
2023-04-26T19:05:29.675Z,3.30
2023-04-26T19:15:34.447Z,3.00
2023-04-26T19:25:37.847Z,2.90
2023-04-26T19:35:43.659Z,2.90
2023-04-26T19:45:47.732Z,2.90
2023-04-26T19:55:52.550Z,2.70
2023-04-26T20:05:56.128Z,2.50
2023-04-26T20:16:00.881Z,2.00
2023-04-26T20:26:04.538Z,1.40
2023-04-26T20:36:09.673Z,1.00
2023-04-26T20:46:13.136Z,0.80
2023-04-26T20:56:17.881Z,0.90
2023-04-26T21:06:21.285Z,1.00
2023-04-26T21:16:26.234Z,0.90
2023-04-26T21:26:29.674Z,0.80
2023-04-26T21:36:34.474Z,0.80
2023-04-26T21:46:37.858Z,0.60
2023-04-26T21:56:43.691Z,0.50
2023-04-26T22:06:47.076Z,0.30
2023-04-26T22:16:51.855Z,0.10
2023-04-26T22:26:55.219Z,0.30
2023-04-26T22:37:13.009Z,0.30
2023-04-26T22:47:24.005Z,0.40
2023-04-26T22:57:29.854Z,0.40
2023-04-26T23:07:34.912Z,0.70
2023-04-26T23:17:41.878Z,0.80
2023-04-26T23:27:45.342Z,0.90
2023-04-26T23:37:52.429Z,0.80
2023-04-26T23:47:55.918Z,1.00
2023-04-26T23:58:00.733Z,1.00
